Aviation Digital Data Service (ADDS)

Output produced by TAFs form (0944 UTC 03 June 2015)
found at http://aviationweather.gov/adds/tafs/
 
KDRO 030526Z 0306/0406 02003KT P6SM SKC 
     FM031400 07006KT P6SM SKC 
     FM031800 23010G18KT P6SM SKC 
     FM040200 29006KT P6SM SKC